Time;durP1;ratioP1;P1;durP2;ratioP2;P2;SDS_P1;SDS_P2;PMS_P1;PMS_P2;Temp;Humidity;BMP_temperature;BMP_pressure;BME280_temperature;BME280_humidity;BME280_pressure;Samples;Min_cycle;Max_cycle;Signal;HPM_P1;HPM_P2
2021/06/09 00:01:54;;;;;;;8.18;5.97;;;;;;;16.39;67.49;99928.78;5028724;28;20087;-27
2021/06/09 00:04:19;;;;;;;9.65;6.78;;;;;;;16.26;68.04;99930.06;5029780;28;20030;-25
2021/06/09 00:06:45;;;;;;;8.25;6.53;;;;;;;16.80;65.38;99923.59;5029434;28;20786;-25
2021/06/09 00:09:10;;;;;;;9.80;7.05;;;;;;;16.94;65.89;99929.31;5029272;28;20025;-25
2021/06/09 00:11:36;;;;;;;9.45;7.07;;;;;;;17.00;65.61;99927.44;5028359;28;20029;-25
2021/06/09 00:14:02;;;;;;;10.73;7.40;;;;;;;17.16;65.22;99920.22;5028284;28;20405;-27
2021/06/09 00:16:27;;;;;;;10.63;7.40;;;;;;;17.13;65.25;99918.88;5029281;28;20033;-25
2021/06/09 00:18:53;;;;;;;9.68;7.53;;;;;;;16.76;66.25;99911.72;5028191;28;20037;-25
2021/06/09 00:21:18;;;;;;;11.10;8.10;;;;;;;16.87;66.78;99926.84;5029156;28;20073;-25
2021/06/09 00:23:44;;;;;;;11.27;7.95;;;;;;;16.90;66.35;99895.09;5027818;28;20116;-25
2021/06/09 00:26:09;;;;;;;11.18;8.30;;;;;;;16.73;67.01;99900.66;5029011;28;20091;-25
2021/06/09 00:28:35;;;;;;;11.60;7.97;;;;;;;16.74;66.92;99911.16;5029329;28;20454;-25
2021/06/09 00:31:02;;;;;;;10.13;8.20;;;;;;;17.30;64.24;99931.28;5027916;28;20072;-25
2021/06/09 00:33:28;;;;;;;11.25;8.88;;;;;;;16.74;66.96;99907.69;5028449;28;20124;-25
2021/06/09 00:35:58;;;;;;;12.30;8.98;;;;;;;17.21;65.28;99915.66;5028896;28;20034;-26
2021/06/09 00:38:27;;;;;;;9.55;7.80;;;;;;;17.45;63.67;99904.38;5027378;28;20060;-25
2021/06/09 00:40:53;;;;;;;9.52;7.82;;;;;;;17.65;63.10;99925.97;5027487;28;20405;-26
2021/06/09 00:43:20;;;;;;;11.48;8.27;;;;;;;17.28;64.25;99920.78;5028840;28;20052;-25
2021/06/09 00:45:52;;;;;;;14.52;9.13;;;;;;;17.44;64.14;99916.22;5028879;28;20030;-25
2021/06/09 00:48:18;;;;;;;9.48;7.72;;;;;;;17.56;63.46;99924.88;5028668;28;20620;-25
2021/06/09 00:50:44;;;;;;;11.75;8.18;;;;;;;17.58;63.13;99914.63;5028706;28;20528;-25
2021/06/09 00:53:28;;;;;;;12.68;7.63;;;;;;;17.58;63.29;99920.00;5028441;28;20053;-25
2021/06/09 00:55:55;;;;;;;13.77;9.25;;;;;;;17.13;65.14;99916.16;5028846;28;20098;-25
2021/06/09 00:58:21;;;;;;;13.98;8.10;;;;;;;17.48;63.79;99917.31;5027088;28;20048;-26
2021/06/09 01:00:46;;;;;;;10.77;7.15;;;;;;;17.22;63.74;99911.91;5027092;28;20091;-25
2021/06/09 01:03:12;;;;;;;10.23;7.18;;;;;;;16.71;66.55;99930.53;5028404;28;20033;-26
2021/06/09 01:05:37;;;;;;;10.85;7.28;;;;;;;16.67;66.83;99919.50;5028456;28;20029;-25
2021/06/09 01:08:03;;;;;;;10.68;7.07;;;;;;;16.87;65.52;99918.78;5028824;28;20034;-25
2021/06/09 01:10:29;;;;;;;9.88;6.63;;;;;;;16.84;65.56;99913.13;5027355;28;20040;-25
2021/06/09 01:12:55;;;;;;;10.00;6.38;;;;;;;16.85;65.27;99912.03;5028493;28;20029;-25
2021/06/09 01:15:21;;;;;;;9.48;6.00;;;;;;;17.24;63.43;99917.81;5027179;28;20045;-25
2021/06/09 01:17:46;;;;;;;9.52;6.00;;;;;;;17.39;62.56;99921.63;5027970;28;20033;-25
2021/06/09 01:20:12;;;;;;;10.90;6.03;;;;;;;16.50;65.21;99908.09;5027883;28;20060;-25
2021/06/09 01:22:37;;;;;;;8.38;5.80;;;;;;;15.83;67.87;99914.94;5028220;28;20038;-25
2021/06/09 01:25:06;;;;;;;9.07;5.80;;;;;;;16.25;66.94;99916.84;5028309;28;20033;-25
2021/06/09 01:27:32;;;;;;;11.13;6.00;;;;;;;15.83;67.65;99901.50;5026917;28;20555;-25
2021/06/09 01:29:58;;;;;;;7.60;5.63;;;;;;;15.81;68.06;99909.84;5026884;28;20026;-25
2021/06/09 01:32:24;;;;;;;9.13;6.05;;;;;;;16.16;66.96;99918.41;5028117;28;20060;-25
2021/06/09 01:34:49;;;;;;;8.18;5.43;;;;;;;16.27;66.19;99920.09;5026713;28;20029;-25
2021/06/09 01:37:15;;;;;;;10.25;6.03;;;;;;;16.61;64.61;99917.84;5026965;28;20029;-25
2021/06/09 01:39:40;;;;;;;9.32;5.53;;;;;;;15.82;66.35;99902.56;5010382;28;20036;-25
2021/06/09 01:42:06;;;;;;;11.60;5.70;;;;;;;15.84;66.52;99913.88;5026648;28;20498;-25
2021/06/09 01:44:31;;;;;;;9.55;5.80;;;;;;;15.21;68.53;99911.69;5027771;28;20083;-25
2021/06/09 01:46:57;;;;;;;8.15;5.43;;;;;;;15.58;66.88;99902.88;5027648;28;20037;-26
2021/06/09 01:49:22;;;;;;;9.45;5.03;;;;;;;15.13;68.25;99893.31;5026671;28;20029;-25
2021/06/09 01:51:48;;;;;;;8.43;5.43;;;;;;;14.83;69.06;99902.69;5026895;28;20461;-25
2021/06/09 01:54:13;;;;;;;10.70;5.60;;;;;;;14.71;69.76;99885.91;5027918;28;20052;-25
2021/06/09 01:56:39;;;;;;;9.35;5.35;;;;;;;14.84;69.38;99901.59;5027781;28;20025;-26
2021/06/09 01:59:18;;;;;;;8.15;5.30;;;;;;;14.87;69.30;99902.97;5028184;28;20100;-25
2021/06/09 02:01:44;;;;;;;8.23;5.10;;;;;;;14.82;69.30;99903.72;5027578;28;20029;-26
2021/06/09 02:04:10;;;;;;;7.43;5.55;;;;;;;14.85;69.09;99905.94;5010233;28;20041;-25
2021/06/09 02:06:39;;;;;;;7.82;5.57;;;;;;;14.41;70.95;99908.56;5027747;28;20028;-25
2021/06/09 02:09:05;;;;;;;11.30;5.60;;;;;;;14.39;71.14;99902.63;5027807;28;20033;-25
2021/06/09 02:11:31;;;;;;;7.68;5.72;;;;;;;14.47;70.95;99904.09;5027634;28;20083;-25
2021/06/09 02:13:57;;;;;;;8.23;5.32;;;;;;;14.51;70.71;99915.13;5026361;28;20037;-25
2021/06/09 02:16:22;;;;;;;8.20;5.47;;;;;;;14.68;70.00;99902.50;5009837;28;20030;-27
2021/06/09 02:18:48;;;;;;;10.38;5.80;;;;;;;14.80;70.03;99913.09;5027759;28;20056;-26
2021/06/09 02:21:13;;;;;;;10.32;5.88;;;;;;;15.05;68.93;99915.25;5026420;28;20477;-25
2021/06/09 02:23:43;;;;;;;8.32;4.97;;;;;;;14.75;69.71;99915.72;5026686;28;20398;-25
2021/06/09 02:26:08;;;;;;;11.30;5.80;;;;;;;14.58;70.42;99907.72;5026690;28;20150;-25
2021/06/09 02:28:34;;;;;;;7.10;5.20;;;;;;;14.50;70.59;99921.56;5026105;28;20481;-26
2021/06/09 02:31:00;;;;;;;8.85;5.20;;;;;;;14.62;70.45;99915.03;5027535;28;20036;-25
2021/06/09 02:33:25;;;;;;;10.80;5.88;;;;;;;15.40;67.39;99911.31;5027925;28;20984;-25
2021/06/09 02:35:52;;;;;;;15.07;6.22;;;;;;;15.64;66.94;99922.56;5027648;28;20071;-25
2021/06/09 02:38:17;;;;;;;9.88;5.65;;;;;;;15.88;66.14;99917.69;5027275;28;20033;-25
2021/06/09 02:40:44;;;;;;;9.35;5.68;;;;;;;15.77;66.33;99905.22;5027339;28;20036;-27
2021/06/09 02:43:10;;;;;;;8.90;5.38;;;;;;;15.39;67.78;99923.16;5027654;28;20387;-25
2021/06/09 02:45:35;;;;;;;9.93;4.78;;;;;;;15.13;69.23;99930.94;5027332;28;20608;-25
2021/06/09 02:48:06;;;;;;;9.27;5.20;;;;;;;15.33;68.31;99926.84;5027533;28;20409;-25
2021/06/09 02:50:32;;;;;;;8.85;5.10;;;;;;;15.55;67.34;99913.31;5010158;28;20032;-25
2021/06/09 02:53:22;;;;;;;9.20;5.90;;;;;;;16.18;65.67;99938.59;5025941;28;20061;-25
2021/06/09 02:56:23;;;;;;;9.93;5.95;;;;;;;16.40;64.05;99930.38;5027285;28;20029;-25
2021/06/09 02:59:10;;;;;;;9.60;5.50;;;;;;;16.17;65.02;99936.16;5030317;28;20045;-25
2021/06/09 03:01:56;;;;;;;9.50;5.60;;;;;;;15.17;68.20;99933.94;5030854;28;20405;-25
2021/06/09 03:04:27;;;;;;;8.38;5.32;;;;;;;15.11;69.70;99941.13;5030528;28;20040;-25
2021/06/09 03:06:56;;;;;;;6.57;4.85;;;;;;;15.04;70.02;99940.50;5013635;28;20485;-26
2021/06/09 03:09:38;;;;;;;9.05;5.07;;;;;;;15.21;68.92;99935.84;5013103;28;20491;-26
2021/06/09 03:12:24;;;;;;;11.55;5.43;;;;;;;15.51;68.53;99922.97;5030626;28;20032;-26
2021/06/09 03:15:13;;;;;;;9.10;5.53;;;;;;;15.91;66.78;99944.03;5015546;28;20037;-25
2021/06/09 03:17:56;;;;;;;9.10;5.38;;;;;;;15.93;66.97;99930.34;5029589;28;20474;-25
2021/06/09 03:20:57;;;;;;;9.15;5.32;;;;;;;15.84;67.19;99935.41;5029189;28;20033;-25
2021/06/09 03:23:47;;;;;;;8.32;5.28;;;;;;;16.09;65.99;99937.47;5029651;28;20053;-25
2021/06/09 03:26:26;;;;;;;10.48;5.78;;;;;;;16.01;66.49;99940.63;5030217;28;20083;-26
2021/06/09 03:29:11;;;;;;;9.65;5.75;;;;;;;16.17;66.35;99933.47;5029296;28;20033;-25
2021/06/09 03:31:50;;;;;;;8.43;5.43;;;;;;;15.98;66.64;99931.19;5027850;28;20513;-25
2021/06/09 03:34:28;;;;;;;12.23;5.85;;;;;;;15.70;67.33;99916.16;5012896;28;20520;-25
2021/06/09 03:36:55;;;;;;;8.88;5.13;;;;;;;15.96;66.99;99927.16;5030202;28;20494;-25
2021/06/09 03:39:22;;;;;;;7.32;5.03;;;;;;;15.77;66.67;99908.72;5027660;28;20033;-26
2021/06/09 03:41:55;;;;;;;10.65;5.45;;;;;;;15.92;66.88;99923.38;5029500;28;20037;-25
2021/06/09 03:44:27;;;;;;;29.88;6.20;;;;;;;16.31;65.29;99931.97;5013464;28;20033;-25
2021/06/09 03:46:53;;;;;;;8.60;5.47;;;;;;;16.37;65.05;99930.13;5028559;28;20051;-25
2021/06/09 03:49:18;;;;;;;9.13;5.55;;;;;;;16.36;65.07;99929.28;5012380;28;20026;-25
2021/06/09 03:51:44;;;;;;;8.38;5.95;;;;;;;16.64;64.50;99936.16;5028633;28;20068;-27
2021/06/09 03:54:09;;;;;;;6.93;5.25;;;;;;;16.52;64.96;99937.44;5029594;28;20432;-25
2021/06/09 03:56:35;;;;;;;9.48;5.30;;;;;;;16.40;65.60;99932.28;5029901;28;20025;-25
2021/06/09 03:59:01;;;;;;;9.70;5.50;;;;;;;16.25;65.32;99919.53;5028539;28;20038;-25
2021/06/09 04:01:35;;;;;;;8.63;5.35;;;;;;;16.34;65.93;99928.72;5012056;28;20032;-26
2021/06/09 04:04:02;;;;;;;10.05;5.63;;;;;;;16.57;65.30;99937.47;5029765;28;20501;-24
2021/06/09 04:06:28;;;;;;;13.00;6.33;;;;;;;16.42;65.54;99917.47;5028168;28;20061;-25
2021/06/09 04:08:54;;;;;;;10.75;6.10;;;;;;;16.70;65.48;99945.09;5027108;28;20279;-25
2021/06/09 04:11:19;;;;;;;10.68;5.60;;;;;;;16.36;66.39;99929.28;5012197;28;20025;-25
2021/06/09 04:13:45;;;;;;;13.38;5.38;;;;;;;16.57;65.70;99930.22;4995524;28;20053;-25
2021/06/09 04:16:10;;;;;;;10.27;5.90;;;;;;;16.61;65.94;99934.00;5011601;28;20037;-25
2021/06/09 04:18:36;;;;;;;9.60;5.35;;;;;;;16.60;66.33;99934.25;5028340;28;20026;-25
2021/06/09 04:21:02;;;;;;;10.77;6.35;;;;;;;16.64;66.56;99935.38;5011587;28;20025;-25
2021/06/09 04:23:28;;;;;;;10.27;6.40;;;;;;;17.00;65.81;99944.44;5011607;28;20033;-25
2021/06/09 04:25:56;;;;;;;10.02;6.20;;;;;;;17.20;65.95;99937.47;5028130;28;20057;-25
2021/06/09 04:28:22;;;;;;;9.13;5.45;;;;;;;17.27;65.54;99938.84;5027973;28;20087;-25
2021/06/09 04:30:47;;;;;;;8.35;5.57;;;;;;;17.48;64.92;99930.78;5011895;28;20029;-25
2021/06/09 04:33:13;;;;;;;9.18;5.88;;;;;;;17.44;65.00;99943.19;5027887;28;20025;-25
2021/06/09 04:35:41;;;;;;;9.35;5.72;;;;;;;17.53;63.42;99919.19;5027871;28;20041;-25
2021/06/09 04:38:10;;;;;;;8.65;5.90;;;;;;;16.97;65.95;99920.69;5011363;28;20549;-25
2021/06/09 04:40:36;;;;;;;9.30;6.32;;;;;;;17.40;64.86;99942.09;5027867;28;20033;-25
2021/06/09 04:43:01;;;;;;;7.65;5.60;;;;;;;17.53;64.47;99936.19;5011367;28;20037;-25
2021/06/09 04:45:27;;;;;;;10.13;5.68;;;;;;;17.40;65.04;99942.09;5028987;28;20482;-25
2021/06/09 04:47:53;;;;;;;10.18;5.72;;;;;;;17.35;65.37;99932.13;5028972;28;20034;-25
2021/06/09 04:50:22;;;;;;;12.70;6.03;;;;;;;17.54;64.54;99921.63;5028578;28;20037;-26
2021/06/09 04:52:47;;;;;;;13.95;6.68;;;;;;;17.60;65.13;99936.72;5028802;28;20053;-25
2021/06/09 04:55:13;;;;;;;9.32;5.97;;;;;;;17.57;65.40;99937.28;5028658;28;20440;-25
2021/06/09 04:57:39;;;;;;;10.18;6.40;;;;;;;17.17;66.40;99944.22;5028946;28;20486;-25
2021/06/09 05:00:08;;;;;;;12.85;6.30;;;;;;;17.37;65.86;99953.44;5029306;28;20032;-25
2021/06/09 05:02:33;;;;;;;10.05;6.40;;;;;;;17.30;66.31;99942.06;5028377;28;20036;-27
2021/06/09 05:04:59;;;;;;;11.77;6.90;;;;;;;17.77;65.56;99946.44;5028823;28;20029;-25
2021/06/09 05:07:24;;;;;;;17.17;6.63;;;;;;;17.76;66.08;99950.25;5028458;28;20414;-25
2021/06/09 05:09:50;;;;;;;21.67;7.78;;;;;;;18.22;65.01;99942.94;5028742;28;20445;-25
2021/06/09 05:12:24;;;;;;;11.77;8.00;;;;;;;18.66;64.81;99945.00;5027103;28;20033;-25
2021/06/09 05:15:06;;;;;;;12.02;7.95;;;;;;;18.74;64.57;99938.22;5011846;28;20040;-25
2021/06/09 05:17:43;;;;;;;13.10;8.20;;;;;;;18.43;65.73;99941.03;5010608;28;20116;-25
2021/06/09 05:20:10;;;;;;;16.10;8.23;;;;;;;18.93;65.09;99959.25;5026986;28;20069;-25
2021/06/09 05:22:42;;;;;;;13.00;7.90;;;;;;;18.77;65.46;99956.56;5028339;28;20107;-25
2021/06/09 05:25:08;;;;;;;11.50;8.68;;;;;;;18.93;65.32;99960.03;5027112;28;20040;-25
2021/06/09 05:27:33;;;;;;;15.57;9.80;;;;;;;18.83;65.39;99941.97;5026991;28;20033;-25
2021/06/09 05:29:59;;;;;;;14.20;9.80;;;;;;;18.73;66.54;99968.19;5010735;28;20410;-25
2021/06/09 05:32:26;;;;;;;15.85;10.50;;;;;;;18.87;65.90;99959.25;5010088;28;20034;-25
2021/06/09 05:34:51;;;;;;;15.57;9.02;;;;;;;18.83;66.09;99950.09;5028155;28;20112;-25
2021/06/09 05:37:17;;;;;;;12.35;9.45;;;;;;;18.89;66.42;99955.47;5010622;28;20037;-25
2021/06/09 05:39:42;;;;;;;10.75;8.60;;;;;;;18.91;66.53;99937.09;5010418;28;20817;-25
2021/06/09 05:42:09;;;;;;;10.55;8.02;;;;;;;19.22;66.02;99949.34;5010437;28;20049;-25
2021/06/09 05:44:35;;;;;;;12.05;9.18;;;;;;;19.12;66.78;99954.00;5027659;28;20018;-25
2021/06/09 05:47:01;;;;;;;14.35;9.23;;;;;;;19.47;65.76;99939.47;5027999;28;20034;-27
2021/06/09 05:49:27;;;;;;;12.45;8.70;;;;;;;19.68;64.53;99946.34;5028356;28;20025;-27
2021/06/09 05:51:53;;;;;;;12.25;9.00;;;;;;;19.75;65.56;99961.50;5028329;28;20084;-25
2021/06/09 05:54:18;;;;;;;14.50;8.90;;;;;;;19.88;64.82;99960.84;5026474;28;20072;-25
2021/06/09 05:56:44;;;;;;;12.65;9.57;;;;;;;19.86;65.56;99957.63;5027911;28;20029;-25
2021/06/09 05:59:11;;;;;;;16.33;10.05;;;;;;;19.75;65.28;99945.25;5026667;28;20045;-25
2021/06/09 06:01:37;;;;;;;14.13;8.85;;;;;;;19.94;65.38;99962.44;5026662;28;20125;-25
2021/06/09 06:04:02;;;;;;;10.82;8.90;;;;;;;20.23;64.10;99957.00;5026642;28;20033;-25
2021/06/09 06:06:28;;;;;;;13.48;8.68;;;;;;;20.43;63.08;99949.75;5026365;28;20121;-24
2021/06/09 06:08:53;;;;;;;11.43;8.90;;;;;;;20.42;62.62;99962.50;5026496;28;20490;-25
2021/06/09 06:11:19;;;;;;;13.68;9.25;;;;;;;20.63;62.32;99951.47;5026284;28;20052;-26
2021/06/09 06:13:46;;;;;;;11.65;8.80;;;;;;;20.79;61.73;99966.47;5014349;28;20037;-26
2021/06/09 06:16:19;;;;;;;13.05;8.85;;;;;;;20.83;62.13;99956.66;5035588;28;20029;-26
2021/06/09 06:18:46;;;;;;;11.20;9.40;;;;;;;20.97;61.71;99964.09;5044675;28;20029;-25
2021/06/09 06:21:13;;;;;;;14.93;9.00;;;;;;;20.79;62.32;99952.91;5047505;28;20102;-25
2021/06/09 06:23:38;;;;;;;15.05;8.25;;;;;;;20.73;61.70;99945.94;5047513;28;20116;-25
2021/06/09 06:26:04;;;;;;;12.85;8.43;;;;;;;20.61;62.33;99946.34;5045700;28;20112;-26
2021/06/09 06:28:31;;;;;;;12.60;9.27;;;;;;;21.11;60.90;99964.19;5044317;28;20094;-25
2021/06/09 06:30:56;;;;;;;11.13;8.93;;;;;;;20.74;62.53;99965.69;5047222;28;20095;-25
2021/06/09 06:33:23;;;;;;;11.23;8.85;;;;;;;20.90;62.11;99958.19;5049276;28;20489;-25
2021/06/09 06:35:48;;;;;;;17.50;9.05;;;;;;;21.01;61.63;99965.13;5049932;28;20025;-25
2021/06/09 06:38:14;;;;;;;9.50;7.65;;;;;;;21.37;59.77;99961.91;5050959;28;20394;-26
2021/06/09 06:40:39;;;;;;;9.32;6.63;;;;;;;21.65;58.58;99960.97;5049809;28;20024;-25
2021/06/09 06:43:05;;;;;;;9.75;7.43;;;;;;;21.76;58.96;99960.81;5049819;28;20438;-25
2021/06/09 06:45:30;;;;;;;13.80;7.05;;;;;;;21.75;57.88;99948.34;5049984;28;20094;-24
2021/06/09 06:47:56;;;;;;;9.40;6.75;;;;;;;21.62;58.52;99967.00;5049781;28;20429;-24
2021/06/09 06:50:22;;;;;;;7.68;6.40;;;;;;;21.51;57.77;99940.31;5050827;28;20737;-25
2021/06/09 06:52:48;;;;;;;9.75;6.45;;;;;;;21.77;57.31;99938.81;5050992;28;20126;-25
2021/06/09 06:55:15;;;;;;;9.93;6.45;;;;;;;21.94;57.36;99940.97;5033421;28;20848;-24
2021/06/09 06:57:40;;;;;;;8.50;6.63;;;;;;;22.19;56.30;99939.72;5033233;28;20836;-24
2021/06/09 07:00:09;;;;;;;12.52;8.82;;;;;;;22.35;55.68;99931.31;5049651;28;20504;-24
2021/06/09 07:02:34;;;;;;;9.02;6.50;;;;;;;22.78;55.26;99939.97;5050875;28;20048;-24
2021/06/09 07:05:02;;;;;;;10.23;6.55;;;;;;;22.79;54.01;99930.72;5032818;28;20111;-24
2021/06/09 07:07:28;;;;;;;9.27;6.88;;;;;;;23.04;54.91;99940.25;5050924;28;20036;-23
2021/06/09 07:09:53;;;;;;;8.82;6.80;;;;;;;22.87;54.69;99932.72;5049510;28;20460;-23
2021/06/09 07:12:19;;;;;;;8.50;6.28;;;;;;;23.02;53.07;99942.47;5048964;28;20032;-24
2021/06/09 07:14:44;;;;;;;9.10;6.80;;;;;;;23.17;54.56;99935.09;5049415;28;20052;-24
2021/06/09 07:17:10;;;;;;;15.32;11.15;;;;;;;23.24;54.55;99928.13;5049217;28;20040;-24
2021/06/09 07:19:36;;;;;;;9.45;6.93;;;;;;;23.15;53.71;99932.69;5049275;28;20120;-24
2021/06/09 07:22:02;;;;;;;9.15;6.97;;;;;;;22.97;55.10;99931.69;5049117;28;20484;-24
2021/06/09 07:24:27;;;;;;;12.73;9.23;;;;;;;23.08;54.83;99934.22;5050006;28;20402;-23
2021/06/09 07:26:53;;;;;;;180.68;104.45;;;;;;;23.04;55.34;99931.31;5050232;28;20029;-24
2021/06/09 07:29:20;;;;;;;90.85;53.22;;;;;;;22.96;55.04;99924.63;5032533;28;20029;-24
2021/06/09 07:31:45;;;;;;;20.60;12.93;;;;;;;22.98;54.53;99932.50;5050419;28;20025;-23
2021/06/09 07:34:11;;;;;;;19.65;13.20;;;;;;;23.07;53.78;99936.16;5049993;28;20032;-24
2021/06/09 07:36:50;;;;;;;12.18;7.78;;;;;;;23.15;54.27;99943.59;5050014;28;20040;-24
2021/06/09 07:39:17;;;;;;;14.52;6.47;;;;;;;23.27;52.19;99946.56;5049938;28;20033;-23
2021/06/09 07:41:43;;;;;;;12.60;9.10;;;;;;;23.45;53.66;99935.81;5048806;28;20409;-24
2021/06/09 07:44:09;;;;;;;8.25;6.00;;;;;;;23.35;53.57;99942.28;5048641;28;20029;-23
2021/06/09 07:46:35;;;;;;;9.48;6.97;;;;;;;23.78;51.98;99922.00;5048739;28;20056;-23
2021/06/09 07:49:02;;;;;;;9.02;6.05;;;;;;;24.07;50.93;99926.97;5032161;28;20029;-24
2021/06/09 07:51:28;;;;;;;10.18;7.10;;;;;;;24.73;48.99;99929.81;5048430;28;20120;-24
2021/06/09 07:53:55;;;;;;;10.60;7.70;;;;;;;25.09;49.41;99936.97;5048514;28;20049;-24
2021/06/09 07:56:21;;;;;;;;;;;;;;;25.13;48.54;99937.09;5050277;28;20094;-23
2021/06/09 07:58:48;;;;;;;10.50;7.50;;;;;;;24.46;50.62;99937.09;5049574;28;19921;-23
2021/06/09 08:01:14;;;;;;;9.38;7.45;;;;;;;24.51;50.42;99935.38;5048335;28;20109;-23
2021/06/09 08:03:39;;;;;;;10.05;7.13;;;;;;;24.23;50.54;99927.34;5049615;28;20025;-23
2021/06/09 08:06:05;;;;;;;15.15;12.15;;;;;;;24.75;47.50;99933.03;5047556;28;20526;-23
2021/06/09 08:08:30;;;;;;;8.95;5.70;;;;;;;24.61;45.65;99926.91;5049087;28;20032;-23
2021/06/09 08:10:56;;;;;;;6.45;4.72;;;;;;;24.79;45.14;99925.81;5049485;28;20112;-23
2021/06/09 08:13:21;;;;;;;7.00;4.90;;;;;;;25.06;46.27;99937.59;5048124;28;20047;-24
2021/06/09 08:15:47;;;;;;;9.10;6.25;;;;;;;25.14;46.25;99944.19;5048101;28;20036;-24
2021/06/09 08:18:12;;;;;;;8.23;6.13;;;;;;;25.55;45.31;99937.47;5049011;28;20033;-24
2021/06/09 08:21:09;;;;;;;7.20;4.95;;;;;;;26.55;41.04;99940.94;5048365;28;20199;-23
2021/06/09 08:23:35;;;;;;;5.93;4.80;;;;;;;26.44;42.28;99929.56;5045418;28;20044;-26
2021/06/09 08:26:01;;;;;;;9.35;4.90;;;;;;;26.86;41.92;99938.69;5030295;28;20041;-25
2021/06/09 08:28:28;;;;;;;7.05;4.65;;;;;;;26.23;43.18;99945.88;5037901;28;20509;-28
2021/06/09 08:30:54;;;;;;;6.90;5.28;;;;;;;26.02;42.36;99932.91;5039495;28;20086;-27
2021/06/09 08:33:19;;;;;;;9.05;5.40;;;;;;;26.12;42.39;99945.44;5037714;28;20033;-25
2021/06/09 08:35:45;;;;;;;10.73;5.53;;;;;;;26.04;43.55;99949.00;5036927;28;20382;-26
2021/06/09 08:38:10;;;;;;;8.02;5.22;;;;;;;25.70;43.43;99930.72;5036552;28;20107;-27
2021/06/09 08:40:36;;;;;;;6.57;4.88;;;;;;;25.86;43.26;99940.00;5029047;28;20025;-27
2021/06/09 08:43:01;;;;;;;7.50;5.65;;;;;;;26.17;40.71;99949.91;5027844;28;20957;-26
2021/06/09 08:45:27;;;;;;;6.10;4.13;;;;;;;26.51;40.11;99931.78;5027704;28;20037;-26
2021/06/09 08:47:52;;;;;;;7.72;5.03;;;;;;;26.48;40.85;99924.22;5028554;28;20135;-25
2021/06/09 08:50:18;;;;;;;6.68;4.75;;;;;;;26.96;39.71;99929.28;5027372;28;20037;-26
2021/06/09 08:52:48;;;;;;;5.28;4.25;;;;;;;27.09;39.76;99921.94;5028655;28;20148;-26
2021/06/09 08:55:14;;;;;;;6.05;4.65;;;;;;;27.29;38.93;99936.00;5028054;28;20457;-26
2021/06/09 08:57:39;;;;;;;6.05;4.20;;;;;;;27.03;39.33;99934.22;5028675;28;20163;-26
2021/06/09 09:00:06;;;;;;;6.03;4.15;;;;;;;26.92;39.75;99930.28;5028470;28;20414;-26
2021/06/09 09:02:31;;;;;;;6.88;3.70;;;;;;;26.63;39.81;99926.44;5028041;28;20037;-26
2021/06/09 09:04:57;;;;;;;6.63;4.03;;;;;;;27.09;38.62;99932.09;5027097;28;20098;-26
2021/06/09 09:07:26;;;;;;;5.95;3.90;;;;;;;27.22;37.86;99926.38;5010811;28;20025;-26
2021/06/09 09:09:52;;;;;;;8.07;4.20;;;;;;;26.86;40.51;99929.69;5028482;28;20101;-25
2021/06/09 09:12:17;;;;;;;6.95;4.80;;;;;;;27.16;38.13;99927.69;5027154;28;20097;-26
2021/06/09 09:14:42;;;;;;;7.60;4.10;;;;;;;27.63;38.16;99930.22;5028295;28;20470;-26
2021/06/09 09:17:11;;;;;;;5.88;4.47;;;;;;;27.80;37.08;99929.25;5028077;28;20026;-26
2021/06/09 09:19:40;;;;;;;4.95;3.65;;;;;;;28.08;36.61;99938.84;5028480;28;20492;-26
2021/06/09 09:22:16;;;;;;;4.93;3.95;;;;;;;28.56;36.91;99912.59;5028233;28;20470;-25
2021/06/09 09:24:46;;;;;;;5.88;3.47;;;;;;;28.75;36.88;99915.56;5028546;28;20036;-26
2021/06/09 09:27:16;;;;;;;5.57;3.92;;;;;;;28.39;36.05;99906.19;5028022;28;20049;-24
2021/06/09 09:30:01;;;;;;;6.72;3.45;;;;;;;27.97;35.10;99916.53;5028057;28;20030;-23
2021/06/09 09:32:27;;;;;;;6.00;3.47;;;;;;;27.89;36.16;99918.25;5028068;28;20030;-23
2021/06/09 09:34:52;;;;;;;4.53;3.63;;;;;;;28.03;36.80;99910.50;5028271;28;20485;-24
2021/06/09 09:37:24;;;;;;;6.32;4.18;;;;;;;28.60;36.28;99924.50;5010527;28;20025;-24
2021/06/09 09:39:51;;;;;;;4.93;3.38;;;;;;;28.41;34.22;99908.59;5027900;28;20065;-23
2021/06/09 09:42:33;;;;;;;5.93;3.80;;;;;;;28.56;34.69;99909.88;5027706;28;20116;-23
2021/06/09 09:45:22;;;;;;;4.53;3.65;;;;;;;28.24;35.97;99904.13;5028470;28;20064;-23
2021/06/09 09:48:10;;;;;;;6.20;3.60;;;;;;;28.42;35.01;99905.50;5028221;28;20103;-24
2021/06/09 09:50:39;;;;;;;6.45;3.60;;;;;;;28.33;34.62;99902.06;5028037;28;20112;-24
2021/06/09 09:53:24;;;;;;;6.93;3.80;;;;;;;28.65;35.17;99896.84;5027865;28;20053;-24
2021/06/09 09:56:00;;;;;;;5.18;3.80;;;;;;;28.73;34.31;99887.69;5028309;28;20032;-23
2021/06/09 09:58:26;;;;;;;5.57;3.72;;;;;;;29.03;34.89;99896.44;5027623;28;20056;-23
2021/06/09 10:00:52;;;;;;;5.83;3.80;;;;;;;28.61;34.70;99890.44;5027664;28;20510;-23
2021/06/09 10:03:19;;;;;;;5.65;3.65;;;;;;;28.37;35.30;99875.56;5027696;28;20629;-23
2021/06/09 10:05:45;;;;;;;8.15;3.90;;;;;;;28.45;34.03;99899.31;5028128;28;20026;-23
2021/06/09 10:08:11;;;;;;;6.20;3.60;;;;;;;28.67;35.06;99894.56;5031717;28;20025;-23
2021/06/09 10:10:36;;;;;;;7.25;4.10;;;;;;;28.60;35.84;99886.88;5031492;28;20104;-23
2021/06/09 10:13:28;;;;;;;5.25;3.92;;;;;;;29.44;34.58;99897.22;5031804;28;20109;-23
2021/06/09 10:15:53;;;;;;;5.38;3.80;;;;;;;29.83;32.46;99886.50;5031341;28;20048;-23
2021/06/09 10:18:23;;;;;;;6.05;3.60;;;;;;;30.39;31.35;99891.03;5031562;28;20029;-23
2021/06/09 10:20:49;;;;;;;6.70;3.53;;;;;;;30.48;31.21;99885.34;5031577;28;20036;-23
2021/06/09 10:23:31;;;;;;;5.43;3.83;;;;;;;30.54;31.27;99861.09;5031456;28;20025;-23
2021/06/09 10:26:10;;;;;;;6.35;3.75;;;;;;;30.65;31.49;99862.16;5031822;28;20040;-26
2021/06/09 10:28:54;;;;;;;8.48;3.65;;;;;;;30.78;31.38;99871.88;5031465;28;20034;-24
2021/06/09 10:31:20;;;;;;;4.75;3.08;;;;;;;30.44;29.93;99870.69;5031441;28;20051;-23
2021/06/09 10:33:45;;;;;;;5.35;3.00;;;;;;;31.03;30.61;99866.91;5031338;28;20481;-24
2021/06/09 10:36:10;;;;;;;8.98;3.88;;;;;;;31.11;29.83;99853.31;5029638;28;20033;-24
2021/06/09 10:38:36;;;;;;;5.80;3.60;;;;;;;31.06;30.59;99859.09;5029966;28;20033;-24
2021/06/09 10:41:01;;;;;;;5.97;3.53;;;;;;;30.91;31.55;99863.50;5031146;28;20044;-24
2021/06/09 10:43:27;;;;;;;7.00;4.05;;;;;;;30.30;32.92;99867.63;5031297;28;20037;-25
2021/06/09 10:45:53;;;;;;;6.13;3.60;;;;;;;30.04;31.60;99853.25;5014062;28;20029;-23
2021/06/09 10:48:18;;;;;;;5.57;3.65;;;;;;;30.17;32.24;99850.41;5029447;28;20025;-24
2021/06/09 10:50:43;;;;;;;6.25;3.47;;;;;;;30.65;31.59;99837.38;5029620;28;20502;-23
2021/06/09 10:53:10;;;;;;;5.68;3.65;;;;;;;31.14;32.28;99836.84;5029245;28;20516;-24
2021/06/09 10:55:36;;;;;;;5.67;3.87;;;;;;;31.19;33.53;99836.53;5030277;28;20029;-24
2021/06/09 10:58:02;;;;;;;5.10;3.53;;;;;;;31.82;31.24;99845.59;5030266;28;20505;-23
2021/06/09 11:00:28;;;;;;;5.60;3.30;;;;;;;31.76;32.53;99836.03;5029997;28;20079;-23
2021/06/09 11:02:54;;;;;;;4.97;3.45;;;;;;;31.96;31.47;99825.72;5028674;28;20037;-23
2021/06/09 11:05:20;;;;;;;5.10;3.37;;;;;;;32.32;30.52;99834.56;5028696;28;20056;-23
2021/06/09 11:07:46;;;;;;;5.18;3.55;;;;;;;31.63;29.90;99843.69;5028710;28;20482;-23
2021/06/09 11:10:18;;;;;;;6.80;3.92;;;;;;;31.54;29.79;99830.13;5029965;28;20037;-23
2021/06/09 11:12:50;;;;;;;7.40;3.22;;;;;;;30.51;30.65;99824.09;5028689;28;20033;-23
2021/06/09 11:15:20;;;;;;;6.50;3.53;;;;;;;30.41;30.74;99824.66;5030053;28;20037;-23
2021/06/09 11:17:47;;;;;;;5.45;3.30;;;;;;;29.51;31.31;99825.19;5028178;28;20791;-23
2021/06/09 11:20:37;;;;;;;5.30;3.90;;;;;;;30.14;33.56;99801.59;5029609;28;20136;-23
2021/06/09 11:23:09;;;;;;;4.88;3.22;;;;;;;30.05;31.72;99791.59;5029626;28;20473;-24
2021/06/09 11:25:45;;;;;;;9.55;5.90;;;;;;;30.64;31.36;99795.28;5029686;28;20637;-23
2021/06/09 11:28:14;;;;;;;4.03;3.13;;;;;;;30.27;31.37;99786.59;5029452;28;20040;-23
2021/06/09 11:30:42;;;;;;;8.75;4.32;;;;;;;30.30;31.84;99790.59;5029700;28;20041;-23
2021/06/09 11:33:10;;;;;;;5.97;3.63;;;;;;;29.74;33.21;99791.63;5029951;28;20584;-23
2021/06/09 11:35:41;;;;;;;5.90;3.85;;;;;;;29.97;31.59;99789.81;5029903;28;20577;-23